This is the latest recevied weather packets stored in our database for station/object KE8URB. If no packets are shown the sender has not sent any weather packets the latest 10 day(s).
| Time | Temp. | Humidity | Pressure | Rain* | Wind** | Luminosity | Snow |
|---|---|---|---|---|---|---|---|
| 1787964223 | 20.56° C | 69% | 1021.5 hPa | 0 mm | - | 0 W/m² | - |
| 1787963921 | 20.56° C | 70% | 1021.5 hPa | 0 mm | - | 0 W/m² | - |
| 1787963616 | 21.11° C | 72% | 1021.3 hPa | 0 mm | - | 0 W/m² | - |
| 1787963312 | 21.11° C | 70% | 1021.3 hPa | 0 mm | - | 0 W/m² | - |
| 1787963011 | 21.11° C | 70% | 1021.1 hPa | 0 mm | - | 0 W/m² | - |
| 1787962705 | 21.11° C | 71% | 1020.8 hPa | 0 mm | - | 0 W/m² | - |
| 1787962399 | 21.67° C | 70% | 1020.8 hPa | 0 mm | - | 0 W/m² | - |
| 1787962098 | 21.67° C | 71% | 1021.1 hPa | 0 mm | - | 0 W/m² | - |
| 1787961798 | 21.67° C | 76% | 1021.2 hPa | 0 mm | - | 0 W/m² | - |
| 1787961496 | 21.67° C | 76% | 1021 hPa | 0 mm | - | 2 W/m² | - |
| 1787961191 | 22.22° C | 74% | 1020.8 hPa | 0 mm | - | 3 W/m² | - |
| 1787960890 | 22.22° C | 74% | 1020.8 hPa | 0 mm | - | 5 W/m² | - |
| 1787960586 | 22.78° C | 72% | 1020.8 hPa | 0 mm | - | 8 W/m² | - |
| 1787960284 | 23.33° C | 70% | 1021 hPa | 0 mm | - | 12 W/m² | - |
| 1787959984 | 23.33° C | 70% | 1020.8 hPa | 0 mm | - | 17 W/m² | - |
| 1787959679 | 23.89° C | 68% | 1021 hPa | 0 mm | - | 19 W/m² | - |
| 1787959374 | 23.89° C | 68% | 1020.7 hPa | 0 mm | - | 23 W/m² | - |
| 1787959069 | 24.44° C | 69% | 1020.7 hPa | 0 mm | - | 27 W/m² | - |
| 1787958764 | 24.44° C | 66% | 1021.1 hPa | 0 mm | - | 24 W/m² | - |
| 1787958459 | 24.44° C | 66% | 1020.6 hPa | 0 mm | - | 34 W/m² | - |
| 1787958155 | 25° C | 65% | 1021 hPa | 0 mm | - | 33 W/m² | - |
| 1787957854 | 25° C | 66% | 1020.7 hPa | 0 mm | - | 44 W/m² | - |
| 1787957548 | 25° C | 62% | 1020.6 hPa | 0 mm | - | 41 W/m² | - |
| 1787957244 | 25° C | 61% | 1020.5 hPa | 0 mm | - | 43 W/m² | - |
| 1787956939 | 25° C | 63% | 1020.7 hPa | 0 mm | - | 39 W/m² | - |
* Rain latest hour (hover to see other rain measurements)
** Current wind speed in m/s (hover to see current wind gust speed)